createdAt,value
2023-03-06T00:00:41.540Z,23.03
2023-03-06T00:03:43.226Z,24.80
2023-03-06T00:06:44.955Z,31.67
2023-03-06T00:09:46.626Z,27.30
2023-03-06T00:12:48.322Z,30.13
2023-03-06T00:15:50.120Z,27.23
2023-03-06T00:18:51.982Z,29.37
2023-03-06T00:21:54.706Z,30.57
2023-03-06T00:24:56.302Z,27.93
2023-03-06T00:27:57.995Z,31.30
2023-03-06T00:30:59.837Z,24.07
2023-03-06T00:34:01.846Z,28.50
2023-03-06T00:37:03.475Z,30.87
2023-03-06T00:40:05.833Z,30.03
2023-03-06T00:43:07.519Z,27.83
2023-03-06T00:46:10.216Z,28.63
2023-03-06T00:49:11.892Z,28.97
2023-03-06T00:52:13.588Z,29.23
2023-03-06T00:55:15.277Z,26.77
2023-03-06T00:58:17.530Z,32.53
2023-03-06T01:01:19.351Z,32.83
2023-03-06T01:04:21.111Z,29.67
2023-03-06T01:07:23.268Z,35.40
2023-03-06T01:10:25.320Z,29.37
2023-03-06T01:13:26.975Z,27.87
2023-03-06T01:16:28.697Z,29.17
2023-03-06T01:19:30.352Z,33.97
2023-03-06T01:22:32.104Z,25.30
2023-03-06T01:25:34.396Z,26.63
2023-03-06T01:28:37.464Z,27.90
2023-03-06T01:31:39.207Z,36.17
2023-03-06T01:34:40.876Z,27.37
2023-03-06T01:37:42.541Z,28.63
2023-03-06T01:40:44.259Z,25.83
2023-03-06T01:43:48.630Z,26.50
2023-03-06T01:46:50.229Z,23.63
2023-03-06T01:49:51.904Z,28.90
2023-03-06T01:52:55.901Z,27.63
2023-03-06T01:55:57.615Z,28.67
2023-03-06T01:58:59.556Z,30.97
2023-03-06T02:02:02.380Z,28.37
2023-03-06T02:05:04.928Z,26.10
2023-03-06T02:08:07.515Z,26.20
2023-03-06T02:11:09.158Z,28.93
2023-03-06T02:14:15.790Z,21.73
2023-03-06T02:17:19.318Z,26.93
2023-03-06T02:20:25.048Z,26.53
2023-03-06T02:23:26.666Z,30.70
2023-03-06T02:26:29.511Z,27.07
2023-03-06T02:29:31.687Z,38.37
2023-03-06T02:32:37.062Z,27.77
2023-03-06T02:35:39.237Z,26.40
2023-03-06T02:38:45.404Z,27.63
2023-03-06T02:41:47.143Z,25.07
2023-03-06T02:44:51.217Z,23.07
2023-03-06T02:47:52.884Z,26.73
2023-03-06T02:50:54.580Z,28.70
2023-03-06T02:53:56.221Z,31.17
2023-03-06T02:56:57.876Z,30.50
2023-03-06T03:00:00.191Z,29.60
2023-03-06T03:03:02.381Z,30.47
2023-03-06T03:06:06.095Z,26.17
2023-03-06T03:09:09.002Z,28.73
2023-03-06T03:12:10.654Z,28.07
2023-03-06T03:15:13.316Z,30.00
2023-03-06T03:18:14.942Z,28.50
2023-03-06T03:21:16.681Z,24.77
2023-03-06T03:24:19.511Z,32.13
2023-03-06T03:27:21.249Z,31.97
2023-03-06T03:30:23.170Z,29.37
2023-03-06T03:33:25.221Z,32.33
2023-03-06T03:36:27.605Z,30.53
2023-03-06T03:39:30.020Z,29.97
2023-03-06T03:42:31.668Z,27.17
2023-03-06T03:45:33.750Z,31.23
2023-03-06T03:48:35.563Z,31.93
2023-03-06T03:51:38.793Z,36.10
2023-03-06T03:54:40.492Z,27.70
2023-03-06T03:57:43.177Z,27.70
2023-03-06T04:00:45.781Z,31.33
2023-03-06T04:03:49.500Z,34.90
2023-03-06T04:06:52.186Z,36.50
2023-03-06T04:09:54.719Z,36.43
2023-03-06T04:13:01.638Z,32.90
2023-03-06T04:16:04.200Z,34.60
2023-03-06T04:19:10.311Z,40.80
2023-03-06T04:22:14.585Z,25.33
2023-03-06T04:25:19.879Z,28.77
2023-03-06T04:28:21.858Z,27.27
2023-03-06T04:31:26.854Z,33.90
2023-03-06T04:34:28.672Z,30.87
2023-03-06T04:37:31.188Z,28.87
2023-03-06T04:40:35.101Z,29.77
2023-03-06T04:43:36.985Z,30.33
2023-03-06T04:46:38.696Z,29.07
2023-03-06T04:49:40.427Z,34.00
2023-03-06T04:52:42.329Z,27.33
2023-03-06T04:55:44.020Z,29.30
2023-03-06T04:58:45.694Z,30.27
2023-03-06T05:01:47.606Z,30.00
2023-03-06T05:04:49.204Z,36.03
2023-03-06T05:07:50.924Z,32.33
2023-03-06T05:10:57.205Z,35.40
2023-03-06T05:13:58.851Z,30.27
2023-03-06T05:17:00.666Z,38.13
2023-03-06T05:20:02.314Z,39.53
2023-03-06T05:23:03.996Z,26.93
2023-03-06T05:26:07.990Z,30.57
2023-03-06T05:29:09.553Z,42.97
2023-03-06T05:32:11.437Z,43.27
2023-03-06T05:35:17.740Z,42.83
2023-03-06T05:38:19.379Z,29.33
2023-03-06T05:41:20.981Z,30.40
2023-03-06T05:44:23.980Z,41.70
2023-03-06T05:47:25.594Z,40.47
2023-03-06T05:50:27.267Z,28.57
2023-03-06T05:53:29.475Z,38.30
2023-03-06T05:56:31.099Z,32.27
2023-03-06T05:59:33.264Z,21.80
2023-03-06T06:02:34.959Z,34.37
2023-03-06T06:05:38.942Z,39.47
2023-03-06T06:08:40.919Z,37.17
2023-03-06T06:11:42.563Z,25.20
2023-03-06T06:14:44.368Z,35.07
2023-03-06T06:17:45.916Z,32.97
2023-03-06T06:20:47.563Z,38.00
2023-03-06T06:23:49.194Z,46.50
2023-03-06T06:26:51.729Z,63.00
2023-03-06T06:29:53.386Z,39.23
2023-03-06T06:32:55.082Z,30.20
2023-03-06T06:35:56.745Z,42.00
2023-03-06T06:38:58.429Z,36.47
2023-03-06T06:42:21.730Z,35.57
2023-03-06T06:45:23.759Z,51.27
2023-03-06T06:48:25.360Z,33.07
2023-03-06T06:51:26.987Z,46.50
2023-03-06T06:54:28.609Z,27.83
2023-03-06T06:57:30.278Z,33.23
2023-03-06T07:00:31.971Z,21.47
2023-03-06T07:03:33.655Z,21.40
2023-03-06T07:06:35.365Z,21.50
2023-03-06T07:09:38.274Z,16.33
2023-03-06T07:12:39.943Z,9.60
2023-03-06T07:15:41.602Z,11.87
2023-03-06T07:18:43.471Z,11.33
2023-03-06T07:21:45.092Z,20.47
2023-03-06T07:24:46.670Z,14.73
2023-03-06T07:27:53.374Z,14.03
2023-03-06T07:30:55.522Z,15.67
2023-03-06T07:33:57.204Z,14.97
2023-03-06T07:36:58.880Z,13.13
2023-03-06T07:40:00.507Z,26.53
2023-03-06T07:43:19.200Z,44.40
2023-03-06T07:46:30.032Z,43.40
2023-03-06T07:49:32.022Z,14.03
2023-03-06T07:52:34.412Z,29.67
2023-03-06T07:55:36.057Z,8.87
2023-03-06T07:58:38.484Z,10.50
2023-03-06T08:01:40.359Z,18.43
2023-03-06T08:04:43.043Z,12.37
2023-03-06T08:07:45.204Z,9.87
2023-03-06T08:10:50.145Z,13.23
2023-03-06T08:13:53.060Z,11.07
2023-03-06T08:16:57.543Z,10.33
2023-03-06T08:19:59.218Z,12.07
2023-03-06T08:23:00.869Z,11.37
2023-03-06T08:26:04.210Z,11.20
2023-03-06T08:29:06.168Z,11.13
2023-03-06T08:32:10.793Z,10.73
2023-03-06T08:35:12.899Z,17.97
2023-03-06T08:38:14.580Z,12.10
2023-03-06T08:41:16.352Z,26.50
2023-03-06T08:44:17.956Z,10.57
2023-03-06T08:47:19.594Z,12.27
2023-03-06T08:50:21.267Z,16.60
2023-03-06T08:53:33.446Z,13.83
2023-03-06T08:56:43.492Z,13.10
2023-03-06T08:59:45.130Z,13.20
2023-03-06T09:02:46.762Z,17.80
2023-03-06T09:05:48.395Z,28.33
2023-03-06T09:08:53.414Z,12.83
2023-03-06T09:11:55.091Z,13.47
2023-03-06T09:14:56.781Z,14.73
2023-03-06T09:17:58.495Z,12.67
2023-03-06T09:21:00.227Z,15.60
2023-03-06T09:24:01.927Z,11.30
2023-03-06T09:27:03.660Z,15.37
2023-03-06T09:30:05.685Z,11.73
2023-03-06T09:33:07.914Z,12.70
2023-03-06T09:36:19.849Z,40.67
2023-03-06T09:39:21.464Z,18.30
2023-03-06T09:42:23.812Z,12.93
2023-03-06T09:45:25.477Z,15.13
2023-03-06T09:48:39.126Z,19.70
2023-03-06T09:52:01.065Z,10.80
2023-03-06T09:55:11.539Z,49.70
2023-03-06T09:58:23.849Z,24.67
2023-03-06T10:01:30.424Z,16.53
2023-03-06T10:04:38.050Z,13.47
2023-03-06T10:07:45.426Z,13.27
2023-03-06T10:10:50.550Z,19.20
2023-03-06T10:13:56.387Z,16.43
2023-03-06T10:16:58.591Z,16.27
2023-03-06T10:20:07.065Z,18.83
2023-03-06T10:23:09.993Z,18.23
2023-03-06T10:26:16.924Z,19.17
2023-03-06T10:29:43.683Z,13.50
2023-03-06T10:32:55.584Z,16.77
2023-03-06T10:35:57.446Z,12.97
2023-03-06T10:39:04.782Z,14.17
2023-03-06T10:42:08.844Z,12.43
2023-03-06T10:45:14.913Z,22.37
2023-03-06T10:48:24.142Z,13.67
2023-03-06T10:51:27.306Z,18.57
2023-03-06T10:54:30.302Z,19.23
2023-03-06T10:57:32.511Z,15.80
2023-03-06T11:00:38.155Z,17.67
2023-03-06T11:03:39.876Z,14.47
2023-03-06T11:06:41.763Z,14.77
2023-03-06T11:10:01.148Z,18.73
2023-03-06T11:13:07.569Z,14.90
2023-03-06T11:16:21.991Z,15.13
2023-03-06T11:19:27.330Z,15.90
2023-03-06T11:22:28.959Z,12.23
2023-03-06T11:25:37.248Z,12.43
2023-03-06T11:28:47.316Z,14.03
2023-03-06T11:32:08.917Z,13.73
2023-03-06T11:35:13.025Z,11.33
2023-03-06T11:38:17.191Z,12.13
2023-03-06T11:41:37.458Z,11.57
2023-03-06T11:44:39.074Z,10.53
2023-03-06T11:47:53.469Z,15.57
2023-03-06T11:51:06.797Z,14.27
2023-03-06T11:54:09.221Z,14.00
2023-03-06T11:57:18.270Z,13.77
2023-03-06T12:00:29.638Z,14.13
2023-03-06T12:03:50.215Z,13.93
2023-03-06T12:06:51.927Z,11.20
2023-03-06T12:09:56.646Z,11.80
2023-03-06T12:13:13.591Z,14.20
2023-03-06T12:16:24.625Z,14.13
2023-03-06T12:19:26.217Z,12.97
2023-03-06T12:22:57.803Z,12.97
2023-03-06T12:26:22.828Z,11.20
2023-03-06T12:29:36.526Z,13.13
2023-03-06T12:32:38.145Z,11.70
2023-03-06T12:35:53.395Z,11.63
2023-03-06T12:39:01.489Z,13.53
2023-03-06T12:42:22.705Z,172.20
2023-03-06T12:45:31.232Z,13.73
2023-03-06T12:48:34.982Z,14.17
2023-03-06T12:51:37.704Z,12.00
2023-03-06T12:54:42.311Z,13.70
2023-03-06T12:57:44.115Z,14.30
2023-03-06T13:01:07.753Z,24.97
2023-03-06T13:04:27.586Z,31.30
2023-03-06T13:07:29.319Z,17.57
2023-03-06T13:10:33.711Z,12.60
2023-03-06T13:13:53.706Z,10.90
2023-03-06T13:16:55.396Z,11.93
2023-03-06T13:20:15.429Z,12.27
2023-03-06T13:23:29.397Z,10.33
2023-03-06T13:26:31.029Z,11.67
2023-03-06T13:29:36.977Z,13.03
2023-03-06T13:32:38.733Z,10.77
2023-03-06T13:35:40.669Z,11.10
2023-03-06T13:38:42.330Z,10.40
2023-03-06T13:41:53.119Z,17.13
2023-03-06T13:44:55.963Z,16.20
2023-03-06T13:51:24.699Z,15.93
2023-03-06T13:54:45.036Z,16.07
2023-03-06T13:58:05.203Z,17.67
2023-03-06T14:01:09.881Z,21.23
2023-03-06T14:04:11.436Z,15.83
2023-03-06T14:07:22.447Z,23.53
2023-03-06T14:10:24.857Z,13.83
2023-03-06T14:13:35.086Z,12.07
2023-03-06T14:16:49.455Z,14.43
2023-03-06T14:19:52.016Z,12.53
2023-03-06T14:22:53.573Z,10.53
2023-03-06T14:25:59.099Z,13.90
2023-03-06T14:29:01.937Z,18.93
2023-03-06T14:32:06.049Z,16.20
2023-03-06T14:35:19.132Z,11.93
2023-03-06T14:38:20.839Z,13.33
2023-03-06T14:41:30.535Z,12.43
2023-03-06T14:44:32.233Z,16.97
2023-03-06T14:47:35.097Z,11.07
2023-03-06T14:50:36.757Z,16.33
2023-03-06T14:53:38.378Z,13.67
2023-03-06T14:56:41.881Z,19.93
2023-03-06T14:59:45.817Z,19.07
2023-03-06T15:02:48.233Z,33.60
2023-03-06T15:05:50.114Z,42.40
2023-03-06T15:08:57.684Z,61.70
2023-03-06T15:12:25.589Z,27.20
2023-03-06T15:15:29.565Z,34.40
2023-03-06T15:18:38.874Z,22.67
2023-03-06T15:21:40.491Z,62.77
2023-03-06T15:24:42.061Z,20.67
2023-03-06T15:27:54.423Z,47.57
2023-03-06T15:31:04.102Z,33.17
2023-03-06T15:34:11.316Z,35.30
2023-03-06T15:37:19.673Z,32.50
2023-03-06T15:40:22.346Z,55.10
2023-03-06T15:43:24.063Z,24.50
2023-03-06T15:46:25.823Z,24.80
2023-03-06T15:49:30.511Z,25.00
2023-03-06T15:52:32.125Z,32.07
2023-03-06T15:55:33.785Z,47.57
2023-03-06T15:58:35.494Z,42.27
2023-03-06T16:01:37.578Z,54.03
2023-03-06T16:04:39.295Z,33.97
2023-03-06T16:07:41.171Z,36.63
2023-03-06T16:10:43.959Z,44.53
2023-03-06T16:13:46.001Z,32.53
2023-03-06T16:16:48.120Z,42.90
2023-03-06T16:19:49.734Z,41.07
2023-03-06T16:22:54.864Z,41.47
2023-03-06T16:25:56.535Z,62.30
2023-03-06T16:28:58.732Z,59.40
2023-03-06T16:32:01.933Z,60.30
2023-03-06T16:35:03.673Z,55.33
2023-03-06T16:38:05.369Z,56.57
2023-03-06T16:41:06.961Z,66.17
2023-03-06T16:44:10.116Z,75.57
2023-03-06T16:47:12.334Z,194.00
2023-03-06T16:50:27.804Z,77.03
2023-03-06T16:53:32.858Z,41.20
2023-03-06T16:56:38.006Z,52.70
2023-03-06T16:59:39.664Z,76.47
2023-03-06T17:02:42.421Z,64.73
2023-03-06T17:05:44.304Z,55.97
2023-03-06T17:08:46.705Z,102.70
2023-03-06T17:11:48.321Z,45.50
2023-03-06T17:14:50.119Z,63.53
2023-03-06T17:17:53.221Z,69.43
2023-03-06T17:20:55.235Z,48.33
2023-03-06T17:23:57.360Z,57.30
2023-03-06T17:26:59.517Z,100.23
2023-03-06T17:30:02.037Z,51.97
2023-03-06T17:33:03.694Z,69.60
2023-03-06T17:36:05.583Z,66.67
2023-03-06T17:39:07.600Z,88.40
2023-03-06T17:42:09.277Z,87.60
2023-03-06T17:45:11.651Z,62.97
2023-03-06T17:48:13.705Z,63.70
2023-03-06T17:51:18.291Z,59.97
2023-03-06T17:54:20.064Z,45.93
2023-03-06T17:57:21.824Z,50.90
2023-03-06T18:00:23.845Z,48.77
2023-03-06T18:03:25.625Z,63.43
2023-03-06T18:06:30.188Z,53.70
2023-03-06T18:09:32.187Z,56.53
2023-03-06T18:12:36.846Z,66.43
2023-03-06T18:15:39.562Z,67.50
2023-03-06T18:18:41.152Z,71.43
2023-03-06T18:21:42.860Z,68.37
2023-03-06T18:24:44.548Z,73.53
2023-03-06T18:27:46.790Z,72.53
2023-03-06T18:30:48.418Z,75.10
2023-03-06T18:33:50.675Z,64.47
2023-03-06T18:36:52.979Z,71.00
2023-03-06T18:39:55.015Z,75.70
2023-03-06T18:42:56.730Z,74.43
2023-03-06T18:45:58.458Z,86.80
2023-03-06T18:49:00.386Z,92.03
2023-03-06T18:52:02.035Z,113.67
2023-03-06T18:55:04.047Z,83.20
2023-03-06T18:58:06.136Z,89.30
2023-03-06T19:01:08.082Z,76.83
2023-03-06T19:04:10.721Z,84.83
2023-03-06T19:07:15.231Z,86.27
2023-03-06T19:10:17.032Z,73.40
2023-03-06T19:13:18.688Z,75.83
2023-03-06T19:16:25.366Z,66.77
2023-03-06T19:19:29.296Z,73.70
2023-03-06T19:22:34.027Z,82.17
2023-03-06T19:25:35.701Z,83.30
2023-03-06T19:28:38.468Z,72.13
2023-03-06T19:31:40.206Z,68.97
2023-03-06T19:34:41.864Z,87.77
2023-03-06T19:37:43.476Z,59.27
2023-03-06T19:40:48.762Z,74.30
2023-03-06T19:43:58.531Z,68.63
2023-03-06T19:47:00.295Z,62.80
2023-03-06T19:50:01.929Z,50.27
2023-03-06T19:53:04.549Z,72.10
2023-03-06T19:56:07.319Z,72.63
2023-03-06T19:59:08.923Z,71.73
2023-03-06T20:02:11.105Z,70.20
2023-03-06T20:05:12.808Z,64.07
2023-03-06T20:08:14.533Z,69.67
2023-03-06T20:11:20.932Z,67.10
2023-03-06T20:14:22.798Z,71.87
2023-03-06T20:17:24.780Z,82.60
2023-03-06T20:20:26.517Z,62.50
2023-03-06T20:23:28.476Z,62.73
2023-03-06T20:26:30.191Z,63.80
2023-03-06T20:29:31.806Z,61.07
2023-03-06T20:32:33.531Z,56.93
2023-03-06T20:35:39.515Z,54.70
2023-03-06T20:38:41.332Z,46.00
2023-03-06T20:41:43.376Z,53.53
2023-03-06T20:44:44.947Z,50.17
2023-03-06T20:47:47.240Z,44.37
2023-03-06T20:50:58.140Z,48.43
2023-03-06T20:54:00.964Z,49.77
2023-03-06T20:57:02.595Z,44.00
2023-03-06T21:00:05.034Z,41.33
2023-03-06T21:03:06.732Z,40.03
2023-03-06T21:06:08.392Z,47.97
2023-03-06T21:09:10.915Z,47.63
2023-03-06T21:12:12.536Z,43.03
2023-03-06T21:15:14.271Z,45.13
2023-03-06T21:18:15.921Z,41.30
2023-03-06T21:21:18.830Z,43.10
2023-03-06T21:24:21.334Z,41.87
2023-03-06T21:27:23.142Z,41.27
2023-03-06T21:30:25.032Z,42.47
2023-03-06T21:33:26.792Z,40.60
2023-03-06T21:36:28.555Z,43.37
2023-03-06T21:39:30.180Z,48.25
2023-03-06T21:42:31.821Z,52.47
2023-03-06T21:45:33.456Z,43.73
2023-03-06T21:48:35.125Z,38.83
2023-03-06T21:51:36.752Z,44.23
2023-03-06T21:54:38.459Z,46.60
2023-03-06T21:57:40.099Z,46.07
2023-03-06T22:00:41.740Z,32.47
2023-03-06T22:03:43.625Z,45.13
2023-03-06T22:06:45.295Z,46.00
2023-03-06T22:09:46.973Z,45.40
2023-03-06T22:12:48.756Z,58.50
2023-03-06T22:15:51.407Z,45.63
2023-03-06T22:18:53.060Z,46.27
2023-03-06T22:21:54.731Z,46.33
2023-03-06T22:24:56.284Z,43.83
2023-03-06T22:27:57.877Z,43.23
2023-03-06T22:31:06.161Z,34.57
2023-03-06T22:34:07.712Z,41.57
2023-03-06T22:37:09.309Z,45.50
2023-03-06T22:40:11.186Z,32.67
2023-03-06T22:43:12.777Z,37.53
2023-03-06T22:46:15.738Z,30.27
2023-03-06T22:49:17.433Z,42.37
2023-03-06T22:52:19.675Z,36.90
2023-03-06T22:55:21.316Z,47.20
2023-03-06T22:58:22.952Z,40.77
2023-03-06T23:01:28.992Z,56.53
2023-03-06T23:04:30.673Z,45.77
2023-03-06T23:07:32.260Z,52.67
2023-03-06T23:10:37.735Z,45.87
2023-03-06T23:13:58.330Z,44.63
2023-03-06T23:17:18.239Z,35.03
2023-03-06T23:20:41.614Z,31.70
2023-03-06T23:24:02.109Z,32.60
2023-03-06T23:27:04.019Z,29.60
2023-03-06T23:30:06.240Z,30.70
2023-03-06T23:33:08.334Z,32.43
2023-03-06T23:36:11.714Z,28.93
2023-03-06T23:39:13.421Z,38.90
2023-03-06T23:42:15.306Z,37.83
2023-03-06T23:45:17.084Z,33.97
2023-03-06T23:48:18.660Z,33.10
2023-03-06T23:51:21.293Z,33.37
2023-03-06T23:54:23.062Z,31.63
2023-03-06T23:57:25.064Z,31.87
